Whiting Field Naval Air Station South Airport
KNDZ : rendu visible

Aérodrome :











RETROUVEZ-NOUS SUR...

 
LOGIN :

S'inscrire | Disclaimer

   EN    FR    IT 

 









Légende :    VFR   VFR Marginal   IFR   IFR Intensif   IFR Très Intensif
Visi : 
Plafond : 
>= 8 km
>= 3000ft
5 à 8 km
1000 à 3000 ft
1500m à 5 km
500 à 1000 ft
800 à 1500m
200 à 500 ft
< 800m
< 200 ft
Symboles :   Orages  Brouillard  Fortes neiges  Fortes précipitations  Vent > 20 kt






- Altitude de l'aérodrome : 177 ft


KNDZ - Whiting Field Naval Air Station South

DERNIER METAR :
  • 172356Z 10007KT 10SM BKN045 BKN050 OVC075 19/06 A3033 RMK AO2 SLP259 T01940056 10239 20194 53004 $

METARs EXPIRÉS :
  • 172256Z 10005KT 10SM BKN043 BKN120 OVC250 21/07 A3032 RMK AO2 SLP255 T02060067 $
  • 172156Z 13004KT 10SM BKN044 OVC250 21/08 A3032 RMK AO2 SLP255 T02060078 $
  • 172056Z 11008KT 10SM OVC044 22/06 A3032 RMK AO2 SLP254 T02220056 56016 $

TAF N/A



MET'MAP, la Météo Aéronautique d'un coup d'oeil ! - Copyright ORBIFLY Décembre 2007 - Disclaimer

ORBIFLY MET'MAP TEAM :

Programmation & Développement : Alexandra Zaïnal
Sur une idée originale de : Baudouin d'Aumeries
Assistance à la programmation : Marc-Olivier Méhu
Soutien technique & logistique : Manuel Goepfert

Contact : metmap@orbifly.com




SOURCES & CREDITS :

   NOAA       Earth
Advisory